Global Enterprise — 3FCJ6 — position and weather

sailwx.info

Track history (hours):
 
Tides and Currents Weather Stations Pressure Air Temp Water Temp Dewpoint Dewpoint Depression Visibility Wind Speed Wind Dir Waves Ship Positions

Global Enterprise

Last reported at 2015-Apr-19 10:27 UTC. Time now 2015-Apr-19 11:02 UTC.
Position N 31°41' E 121°10'.

Length 290 m; draft 10 m.

Type: Cargo ship. MMSI: 356308000.

Date/timePositionNaut miles runAvg speedWind from/ knotsBaromVisibWave heightAir tempDewpointWater temp
2015-Apr-19 10:27N 31°41' E 121°10'0 0.0
2015-Apr-19 09:30N 31°41' E 121°10'0 0.0
2015-Apr-19 08:30N 31°41' E 121°10'0 0.0
2015-Apr-19 07:33N 31°41' E 121°10'0 0.0
2015-Apr-19 06:30N 31°41' E 121°10'0 0.0
2015-Apr-19 05:30N 31°41' E 121°10'0 0.0
2015-Apr-19 04:33N 31°41' E 121°10'0 0.0
2015-Apr-19 03:30N 31°41' E 121°10'0 0.0
2015-Apr-19 02:30N 31°41' E 121°10'0 0.0
2015-Apr-19 01:30N 31°41' E 121°10'0 0.0
2015-Apr-19 00:33N 31°41' E 121°10'0 0.0
2015-Apr-18 23:33N 31°41' E 121°10'0 0.0
2015-Apr-18 22:33N 31°41' E 121°10'0 0.0
2015-Apr-18 21:30N 31°41' E 121°10'0 0.0
2015-Apr-18 20:30N 31°41' E 121°10'0 0.0
2015-Apr-18 19:33N 31°41' E 121°10'0 0.0
2015-Apr-18 18:33N 31°41' E 121°10'0 0.0
2015-Apr-18 17:30N 31°41' E 121°10'0 0.0
2015-Apr-18 16:33N 31°41' E 121°10'0 0.0
2015-Apr-18 15:33N 31°41' E 121°10'0 0.0
2015-Apr-18 14:33N 31°41' E 121°10'0 0.0
2015-Apr-18 13:33N 31°41' E 121°10'0 0.0
2015-Apr-18 12:30N 31°41' E 121°10'0 0.0
2015-Apr-18 11:33N 31°41' E 121°10'0 0.0
2015-Apr-18 10:33N 31°41' E 121°10'0 0.0
2015-Apr-18 09:33N 31°41' E 121°10'0 0.0
2015-Apr-18 08:30N 31°41' E 121°10'0 0.0
2015-Apr-18 07:30N 31°41' E 121°10'0 0.0
2015-Apr-18 06:30N 31°41' E 121°10'0 0.0
2015-Apr-18 05:33N 31°41' E 121°10'0 0.0
2015-Apr-18 04:30N 31°41' E 121°10'0 0.0
2015-Apr-18 03:33N 31°41' E 121°10'0 0.0
2015-Apr-18 02:33N 31°41' E 121°10'0 0.0
2015-Apr-18 01:33N 31°41' E 121°10'0 0.0
2015-Apr-18 00:30N 31°41' E 121°10'0 0.0
2015-Apr-17 23:30N 31°41' E 121°10'0 0.0
2015-Apr-17 22:30N 31°41' E 121°10'0 0.0
2015-Apr-17 21:33N 31°41' E 121°10'0 0.0
2015-Apr-17 20:30N 31°41' E 121°10'0 0.0
2015-Apr-17 19:33N 31°41' E 121°10'0 0.0
2015-Apr-17 18:27N 31°41' E 121°10'0 0.0
2015-Apr-17 17:33N 31°41' E 121°10'0 0.0
2015-Apr-17 16:33N 31°41' E 121°10'0 0.0
2015-Apr-17 15:33N 31°41' E 121°10'0 0.0
2015-Apr-17 14:30N 31°41' E 121°10'0 0.0
2015-Apr-17 13:30N 31°41' E 121°10'0 0.0
2015-Apr-17 12:33N 31°41' E 121°10'0 0.0
2015-Apr-17 11:33N 31°41' E 121°10'0 0.0
2015-Apr-17 10:33N 31°41' E 121°10'0 0.0
2015-Apr-17 09:33N 31°41' E 121°10'2 1.7
2015-Apr-17 08:33N 31°40' E 121°12'7 7.2
2015-Apr-17 07:33N 31°35' E 121°18'1 0.9
2015-Apr-17 06:29N 31°35' E 121°19'0 0.0
2015-Apr-17 05:32N 31°35' E 121°19'0 0.2
2015-Apr-17 04:33N 31°35' E 121°19'1010.3
2015-Apr-17 03:33N 31°28' E 121°28'1010.0
2015-Apr-17 02:33N 31°22' E 121°38'1010.1
2015-Apr-17 01:33N 31°18' E 121°48'1010.1
2015-Apr-17 00:33N 31°15' E 121°59'1010.2
2015-Apr-16 23:33N 31°11' E 122°10'9 9.4
2015-Apr-16 22:33N 31°06' E 122°20'1010.0
2015-Apr-16 21:33N 31°07' E 122°32'6 5.9
2015-Apr-16 20:33N 31°08' E 122°38'3 2.7
2015-Apr-16 19:33N 31°10' E 122°40'0 0.1
2015-Apr-16 18:33N 31°10' E 122°40'0 0.1
2015-Apr-16 17:33N 31°10' E 122°40'0 0.0
2015-Apr-16 16:27N 31°10' E 122°40'0 0.2
2015-Apr-16 15:27N 31°10' E 122°40'0 0.1
2015-Apr-16 14:33N 31°10' E 122°40'0 0.0
2015-Apr-16 13:24N 31°10' E 122°40'0 0.0
2015-Apr-16 12:27N 31°10' E 122°40'0 0.0
2015-Apr-16 11:30N 31°10' E 122°40'0 0.1
2015-Apr-16 10:30N 31°10' E 122°40'0 0.1
2015-Apr-16 09:12N 31°10' E 122°40'0 0.1
2015-Apr-16 08:15N 31°10' E 122°40'0 0.1
2015-Apr-16 07:27N 31°10' E 122°40'0 0.1
2015-Apr-16 03:12N 31°10' E 122°40'0 0.1
2015-Apr-15 22:30N 31°10' E 122°40'3 2.9
2015-Apr-15 21:34N 31°10' E 122°43'1010.4
2015-Apr-15 20:33N 31°10' E 122°55'1211.8
2015-Apr-15 19:32N 31°08' E 123°09'1010.6
2015-Apr-15 18:33N 30°59' E 123°15'1211.9
2015-Apr-15 17:33N 30°47' E 123°16'1111.6
2015-Apr-15 16:34N 30°35' E 123°18'1511.8
2015-Apr-15 15:18N 30°20' E 123°18'911.2
2015-Apr-15 14:32N 30°12' E 123°16'1212.6
2015-Apr-15 13:33N 30°04' E 123°05'1313.4
2015-Apr-15 12:33N 29°55' E 122°54'1312.7
2015-Apr-15 11:33N 29°47' E 122°43'1212.3
2015-Apr-15 10:33N 29°40' E 122°31'9 9.1
2015-Apr-15 09:33N 29°42' E 122°21'8 7.7
2015-Apr-15 08:33N 29°44' E 122°12'0 0.1
2015-Apr-15 07:32N 29°44' E 122°12'0 0.0
2015-Apr-15 06:14N 29°44' E 122°12'0 0.0
2015-Apr-15 05:32N 29°44' E 122°12'0 0.0
2015-Apr-15 04:14N 29°44' E 122°12'0 0.0
2015-Apr-15 03:14N 29°44' E 122°12'0 0.0
2015-Apr-15 02:20N 29°44' E 122°12'0 0.0
2015-Apr-15 00:26N 29°44' E 122°12'0 0.0
2015-Apr-14 23:32N 29°44' E 122°12'0 0.0
2015-Apr-14 22:26N 29°44' E 122°12'0 0.0
2015-Apr-14 21:20N 29°44' E 122°12'0 0.0
2015-Apr-14 20:14N 29°44' E 122°12'0 0.0
2015-Apr-14 19:26N 29°44' E 122°12'0 0.0
2015-Apr-14 18:26N 29°44' E 122°12'0 0.0
2015-Apr-14 17:32N 29°44' E 122°12'0 0.0
2015-Apr-14 16:32N 29°44' E 122°12'0 0.0
2015-Apr-14 15:26N 29°44' E 122°12'0 0.0
2015-Apr-14 14:08N 29°44' E 122°12'0 0.0
2015-Apr-14 13:20N 29°44' E 122°12'0 0.1
2015-Apr-14 11:33N 29°44' E 122°13'3 3.4
2015-Apr-14 10:33N 29°43' E 122°16'5 4.8
2015-Apr-14 09:33N 29°43' E 122°22'7 7.2
2015-Apr-14 08:33N 29°41' E 122°30'5 3.9
2015-Apr-14 07:13N 29°45' E 122°33'0 0.1
2015-Apr-14 03:07N 29°45' E 122°34'0 0.1
2015-Apr-14 00:25N 29°45' E 122°34'0 0.0
2015-Apr-13 23:25N 29°45' E 122°34'0 0.1
2015-Apr-13 22:19N 29°45' E 122°34'0 0.1
2015-Apr-13 21:31N 29°45' E 122°34'0 0.1
2015-Apr-13 19:25N 29°45' E 122°33'0 0.1
2015-Apr-13 17:31N 29°45' E 122°33'0 0.0
2015-Apr-13 16:19N 29°45' E 122°33'0 0.0
2015-Apr-13 15:25N 29°45' E 122°33'0 0.0
2015-Apr-13 12:31N 29°45' E 122°33'0 0.0
2015-Apr-13 04:20N 29°45' E 122°33'1 0.4
2015-Apr-13 01:33N 29°44' E 122°34'0 0.1
2015-Apr-12 23:27N 29°44' E 122°34'0 0.1
2015-Apr-12 21:09N 29°44' E 122°34'0 0.0
2015-Apr-12 19:15N 29°44' E 122°34'0 0.0
2015-Apr-12 17:27N 29°44' E 122°34'0 0.1
2015-Apr-12 16:33N 29°44' E 122°34'0 0.1
2015-Apr-12 13:06N 29°44' E 122°34'0 0.1
2015-Apr-12 11:24N 29°44' E 122°34'0 0.1
2015-Apr-12 10:15N 29°44' E 122°34'0 0.1
2015-Apr-12 06:12N 29°44' E 122°34'0 0.1
2015-Apr-12 05:27N 29°44' E 122°34'0 0.1
2015-Apr-12 04:24N 29°44' E 122°34'0 0.1
2015-Apr-12 03:27N 29°44' E 122°34'0 0.2
2015-Apr-12 02:27N 29°44' E 122°34'0 0.0
2015-Apr-12 01:03N 29°44' E 122°34'0 0.0
2015-Apr-11 23:15N 29°44' E 122°34'0 0.2
2015-Apr-11 22:03N 29°44' E 122°34'0 0.0
2015-Apr-11 21:15N 29°44' E 122°34'0 0.0
2015-Apr-11 20:09N 29°44' E 122°34'0 0.0
2015-Apr-11 18:33N 29°44' E 122°34'0 0.1
2015-Apr-11 17:21N 29°44' E 122°34'0 0.1
2015-Apr-11 16:33N 29°44' E 122°34'0 0.1
2015-Apr-11 15:27N 29°44' E 122°34'0 0.1
2015-Apr-11 14:09N 29°44' E 122°34'0 0.1
2015-Apr-11 12:09N 29°44' E 122°34'0 0.0
2015-Apr-11 11:27N 29°44' E 122°34'0 0.0
2015-Apr-11 01:03N 29°44' E 122°34'0 0.0
2015-Apr-10 23:15N 29°44' E 122°34'0 0.1
2015-Apr-10 22:33N 29°44' E 122°34'0 0.1
2015-Apr-10 21:27N 29°44' E 122°34'0 0.2
2015-Apr-10 20:21N 29°44' E 122°34'0 0.1
2015-Apr-10 19:33N 29°44' E 122°34'0 0.0
2015-Apr-10 15:27N 29°44' E 122°34'0 0.1
2015-Apr-10 14:32N 29°44' E 122°34'6 5.1
2015-Apr-10 13:28N 29°43' E 122°40'  
Track history (hours):
 
Tides and Currents Weather Stations Pressure Air Temp Water Temp Dewpoint Dewpoint Depression Visibility Wind Speed Wind Dir Waves Ship Positions

Global Enterprise

Last reported at 2015-Apr-19 10:27 UTC. Time now 2015-Apr-19 11:02 UTC.
Position N 31°41' E 121°10'.

Length 290 m; draft 10 m.

Type: Cargo ship. MMSI: 356308000.

Date/timePositionNaut miles runAvg speedWind from/ knotsBaromVisibWave heightAir tempDewpointWater temp
2015-Apr-19 10:27N 31°41' E 121°10'0 0.0
2015-Apr-19 09:30N 31°41' E 121°10'0 0.0
2015-Apr-19 08:30N 31°41' E 121°10'0 0.0
2015-Apr-19 07:33N 31°41' E 121°10'0 0.0
2015-Apr-19 06:30N 31°41' E 121°10'0 0.0
2015-Apr-19 05:30N 31°41' E 121°10'0 0.0
2015-Apr-19 04:33N 31°41' E 121°10'0 0.0
2015-Apr-19 03:30N 31°41' E 121°10'0 0.0
2015-Apr-19 02:30N 31°41' E 121°10'0 0.0
2015-Apr-19 01:30N 31°41' E 121°10'0 0.0
2015-Apr-19 00:33N 31°41' E 121°10'0 0.0
2015-Apr-18 23:33N 31°41' E 121°10'0 0.0
2015-Apr-18 22:33N 31°41' E 121°10'0 0.0
2015-Apr-18 21:30N 31°41' E 121°10'0 0.0
2015-Apr-18 20:30N 31°41' E 121°10'0 0.0
2015-Apr-18 19:33N 31°41' E 121°10'0 0.0
2015-Apr-18 18:33N 31°41' E 121°10'0 0.0
2015-Apr-18 17:30N 31°41' E 121°10'0 0.0
2015-Apr-18 16:33N 31°41' E 121°10'0 0.0
2015-Apr-18 15:33N 31°41' E 121°10'0 0.0
2015-Apr-18 14:33N 31°41' E 121°10'0 0.0
2015-Apr-18 13:33N 31°41' E 121°10'0 0.0
2015-Apr-18 12:30N 31°41' E 121°10'0 0.0
2015-Apr-18 11:33N 31°41' E 121°10'0 0.0
2015-Apr-18 10:33N 31°41' E 121°10'0 0.0
2015-Apr-18 09:33N 31°41' E 121°10'0 0.0
2015-Apr-18 08:30N 31°41' E 121°10'0 0.0
2015-Apr-18 07:30N 31°41' E 121°10'0 0.0
2015-Apr-18 06:30N 31°41' E 121°10'0 0.0
2015-Apr-18 05:33N 31°41' E 121°10'0 0.0
2015-Apr-18 04:30N 31°41' E 121°10'0 0.0
2015-Apr-18 03:33N 31°41' E 121°10'0 0.0
2015-Apr-18 02:33N 31°41' E 121°10'0 0.0
2015-Apr-18 01:33N 31°41' E 121°10'0 0.0
2015-Apr-18 00:30N 31°41' E 121°10'0 0.0
2015-Apr-17 23:30N 31°41' E 121°10'0 0.0
2015-Apr-17 22:30N 31°41' E 121°10'0 0.0
2015-Apr-17 21:33N 31°41' E 121°10'0 0.0
2015-Apr-17 20:30N 31°41' E 121°10'0 0.0
2015-Apr-17 19:33N 31°41' E 121°10'0 0.0
2015-Apr-17 18:27N 31°41' E 121°10'0 0.0
2015-Apr-17 17:33N 31°41' E 121°10'0 0.0
2015-Apr-17 16:33N 31°41' E 121°10'0 0.0
2015-Apr-17 15:33N 31°41' E 121°10'0 0.0
2015-Apr-17 14:30N 31°41' E 121°10'0 0.0
2015-Apr-17 13:30N 31°41' E 121°10'0 0.0
2015-Apr-17 12:33N 31°41' E 121°10'0 0.0
2015-Apr-17 11:33N 31°41' E 121°10'0 0.0
2015-Apr-17 10:33N 31°41' E 121°10'0 0.0
2015-Apr-17 09:33N 31°41' E 121°10'2 1.7
2015-Apr-17 08:33N 31°40' E 121°12'7 7.2
2015-Apr-17 07:33N 31°35' E 121°18'1 0.9
2015-Apr-17 06:29N 31°35' E 121°19'0 0.0
2015-Apr-17 05:32N 31°35' E 121°19'0 0.2
2015-Apr-17 04:33N 31°35' E 121°19'1010.3
2015-Apr-17 03:33N 31°28' E 121°28'1010.0
2015-Apr-17 02:33N 31°22' E 121°38'1010.1
2015-Apr-17 01:33N 31°18' E 121°48'1010.1
2015-Apr-17 00:33N 31°15' E 121°59'1010.2
2015-Apr-16 23:33N 31°11' E 122°10'9 9.4
2015-Apr-16 22:33N 31°06' E 122°20'1010.0
2015-Apr-16 21:33N 31°07' E 122°32'6 5.9
2015-Apr-16 20:33N 31°08' E 122°38'3 2.7
2015-Apr-16 19:33N 31°10' E 122°40'0 0.1
2015-Apr-16 18:33N 31°10' E 122°40'0 0.1
2015-Apr-16 17:33N 31°10' E 122°40'0 0.0
2015-Apr-16 16:27N 31°10' E 122°40'0 0.2
2015-Apr-16 15:27N 31°10' E 122°40'0 0.1
2015-Apr-16 14:33N 31°10' E 122°40'0 0.0
2015-Apr-16 13:24N 31°10' E 122°40'0 0.0
2015-Apr-16 12:27N 31°10' E 122°40'0 0.0
2015-Apr-16 11:30N 31°10' E 122°40'0 0.1
2015-Apr-16 10:30N 31°10' E 122°40'0 0.1
2015-Apr-16 09:12N 31°10' E 122°40'0 0.1
2015-Apr-16 08:15N 31°10' E 122°40'0 0.1
2015-Apr-16 07:27N 31°10' E 122°40'0 0.1
2015-Apr-16 03:12N 31°10' E 122°40'0 0.1
2015-Apr-15 22:30N 31°10' E 122°40'3 2.9
2015-Apr-15 21:34N 31°10' E 122°43'1010.4
2015-Apr-15 20:33N 31°10' E 122°55'1211.8
2015-Apr-15 19:32N 31°08' E 123°09'1010.6
2015-Apr-15 18:33N 30°59' E 123°15'1211.9
2015-Apr-15 17:33N 30°47' E 123°16'1111.6
2015-Apr-15 16:34N 30°35' E 123°18'1511.8
2015-Apr-15 15:18N 30°20' E 123°18'911.2
2015-Apr-15 14:32N 30°12' E 123°16'1212.6
2015-Apr-15 13:33N 30°04' E 123°05'1313.4
2015-Apr-15 12:33N 29°55' E 122°54'1312.7
2015-Apr-15 11:33N 29°47' E 122°43'1212.3
2015-Apr-15 10:33N 29°40' E 122°31'9 9.1
2015-Apr-15 09:33N 29°42' E 122°21'8 7.7
2015-Apr-15 08:33N 29°44' E 122°12'0 0.1
2015-Apr-15 07:32N 29°44' E 122°12'0 0.0
2015-Apr-15 06:14N 29°44' E 122°12'0 0.0
2015-Apr-15 05:32N 29°44' E 122°12'0 0.0
2015-Apr-15 04:14N 29°44' E 122°12'0 0.0
2015-Apr-15 03:14N 29°44' E 122°12'0 0.0
2015-Apr-15 02:20N 29°44' E 122°12'0 0.0
2015-Apr-15 00:26N 29°44' E 122°12'0 0.0
2015-Apr-14 23:32N 29°44' E 122°12'0 0.0
2015-Apr-14 22:26N 29°44' E 122°12'0 0.0
2015-Apr-14 21:20N 29°44' E 122°12'0 0.0
2015-Apr-14 20:14N 29°44' E 122°12'0 0.0
2015-Apr-14 19:26N 29°44' E 122°12'0 0.0
2015-Apr-14 18:26N 29°44' E 122°12'0 0.0
2015-Apr-14 17:32N 29°44' E 122°12'0 0.0
2015-Apr-14 16:32N 29°44' E 122°12'0 0.0
2015-Apr-14 15:26N 29°44' E 122°12'0 0.0
2015-Apr-14 14:08N 29°44' E 122°12'0 0.0
2015-Apr-14 13:20N 29°44' E 122°12'0 0.1
2015-Apr-14 11:33N 29°44' E 122°13'3 3.4
2015-Apr-14 10:33N 29°43' E 122°16'5 4.8
2015-Apr-14 09:33N 29°43' E 122°22'7 7.2
2015-Apr-14 08:33N 29°41' E 122°30'5 3.9
2015-Apr-14 07:13N 29°45' E 122°33'0 0.1
2015-Apr-14 03:07N 29°45' E 122°34'0 0.1
2015-Apr-14 00:25N 29°45' E 122°34'0 0.0
2015-Apr-13 23:25N 29°45' E 122°34'0 0.1
2015-Apr-13 22:19N 29°45' E 122°34'0 0.1
2015-Apr-13 21:31N 29°45' E 122°34'0 0.1
2015-Apr-13 19:25N 29°45' E 122°33'0 0.1
2015-Apr-13 17:31N 29°45' E 122°33'0 0.0
2015-Apr-13 16:19N 29°45' E 122°33'0 0.0
2015-Apr-13 15:25N 29°45' E 122°33'0 0.0
2015-Apr-13 12:31N 29°45' E 122°33'0 0.0
2015-Apr-13 04:20N 29°45' E 122°33'1 0.4
2015-Apr-13 01:33N 29°44' E 122°34'0 0.1
2015-Apr-12 23:27N 29°44' E 122°34'0 0.1
2015-Apr-12 21:09N 29°44' E 122°34'0 0.0
2015-Apr-12 19:15N 29°44' E 122°34'0 0.0
2015-Apr-12 17:27N 29°44' E 122°34'0 0.1
2015-Apr-12 16:33N 29°44' E 122°34'0 0.1
2015-Apr-12 13:06N 29°44' E 122°34'0 0.1
2015-Apr-12 11:24N 29°44' E 122°34'0 0.1
2015-Apr-12 10:15N 29°44' E 122°34'0 0.1
2015-Apr-12 06:12N 29°44' E 122°34'0 0.1
2015-Apr-12 05:27N 29°44' E 122°34'0 0.1
2015-Apr-12 04:24N 29°44' E 122°34'0 0.1
2015-Apr-12 03:27N 29°44' E 122°34'0 0.2
2015-Apr-12 02:27N 29°44' E 122°34'0 0.0
2015-Apr-12 01:03N 29°44' E 122°34'0 0.0
2015-Apr-11 23:15N 29°44' E 122°34'0 0.2
2015-Apr-11 22:03N 29°44' E 122°34'0 0.0
2015-Apr-11 21:15N 29°44' E 122°34'0 0.0
2015-Apr-11 20:09N 29°44' E 122°34'0 0.0
2015-Apr-11 18:33N 29°44' E 122°34'0 0.1
2015-Apr-11 17:21N 29°44' E 122°34'0 0.1
2015-Apr-11 16:33N 29°44' E 122°34'0 0.1
2015-Apr-11 15:27N 29°44' E 122°34'0 0.1
2015-Apr-11 14:09N 29°44' E 122°34'0 0.1
2015-Apr-11 12:09N 29°44' E 122°34'0 0.0
2015-Apr-11 11:27N 29°44' E 122°34'0 0.0
2015-Apr-11 01:03N 29°44' E 122°34'0 0.0
2015-Apr-10 23:15N 29°44' E 122°34'0 0.1
2015-Apr-10 22:33N 29°44' E 122°34'0 0.1
2015-Apr-10 21:27N 29°44' E 122°34'0 0.2
2015-Apr-10 20:21N 29°44' E 122°34'0 0.1
2015-Apr-10 19:33N 29°44' E 122°34'0 0.0
2015-Apr-10 15:27N 29°44' E 122°34'0 0.1
2015-Apr-10 14:32N 29°44' E 122°34'6 5.1
2015-Apr-10 13:28N 29°43' E 122°40'  

Dump ship's entire track history